logo
Search for airport 
image banner adimage banner adimage banner ad
image banner ad

SETN - Tachina / Coronel Carlos Concha Torres

Located in Esmeraldas, Ecuador

ICAO - SETN, IATA - ESM

Data provided by Airmate  

General information

Coordinates: N0°58'40" W79°37'36"
Elevation is 33 feet MSL.
Magnetic variation is -4° East
Rated:
View ratings:
[VIEW]
View others Airports in Esmeraldas

Operational data

Special qualification required
Current time UTC:
Current local time:
Weather
METAR: SETN 111800Z 21005KT 9999 SCT023 30/26 Q1007 RMK A2975
View NOTAMs / SUP AIP / TFR affecting this airport [VIEW]
Communications frequencies: [VIEW]

Runways:

RWY identifierQFULength (ft)Width (ft)SurfaceLDA (ft)
018373146ASPH8373
19182°8373146ASPH8373

Airport contact information

Address: Esmeraldas Ecuador

Satellite view of SETN